createdAt,value
2018-10-09T00:00:52.270Z,1024.09
2018-10-09T00:02:19.660Z,1024.05
2018-10-09T00:03:47.037Z,1024.03
2018-10-09T00:05:14.323Z,1024.01
2018-10-09T00:06:41.741Z,1023.96
2018-10-09T00:08:08.850Z,1023.98
2018-10-09T00:09:35.756Z,1024.02
2018-10-09T00:11:03.002Z,1024.06
2018-10-09T00:12:30.045Z,1024.12
2018-10-09T00:13:57.418Z,1024.18
2018-10-09T00:15:24.679Z,1024.21
2018-10-09T00:16:51.582Z,1024.19
2018-10-09T00:18:18.799Z,1024.17
2018-10-09T00:19:46.096Z,1024.14
2018-10-09T00:21:13.211Z,1024.14
2018-10-09T00:22:40.624Z,1024.14
2018-10-09T00:24:08.078Z,1024.13
2018-10-09T00:25:35.307Z,1024.13
2018-10-09T00:27:02.617Z,1024.14
2018-10-09T00:28:29.974Z,1024.18
2018-10-09T00:29:57.284Z,1024.23
2018-10-09T00:31:24.554Z,1024.29
2018-10-09T00:32:51.954Z,1024.29
2018-10-09T00:34:19.125Z,1024.26
2018-10-09T00:35:46.654Z,1024.28
2018-10-09T00:37:13.584Z,1024.30
2018-10-09T00:38:40.932Z,1024.32
2018-10-09T00:40:08.256Z,1024.31
2018-10-09T00:41:35.660Z,1024.29
2018-10-09T00:43:02.772Z,1024.30
2018-10-09T00:44:30.331Z,1024.32
2018-10-09T00:45:57.572Z,1024.33
2018-10-09T00:47:24.915Z,1024.35
2018-10-09T00:48:52.294Z,1024.35
2018-10-09T00:50:19.685Z,1024.33
2018-10-09T00:51:46.948Z,1024.36
2018-10-09T00:53:14.269Z,1024.35
2018-10-09T00:54:41.545Z,1024.33
2018-10-09T00:56:09.008Z,1024.35
2018-10-09T00:57:36.217Z,1024.35
2018-10-09T00:59:03.636Z,1024.33
2018-10-09T01:00:30.969Z,1024.28
2018-10-09T01:01:58.349Z,1024.28
2018-10-09T01:03:25.610Z,1024.35
2018-10-09T01:04:52.832Z,1024.39
2018-10-09T01:06:20.192Z,1024.41
2018-10-09T01:07:47.624Z,1024.38
2018-10-09T01:09:15.002Z,1024.39
2018-10-09T01:10:42.101Z,1024.35
2018-10-09T01:12:09.477Z,1024.32
2018-10-09T01:13:36.781Z,1024.31
2018-10-09T01:15:03.949Z,1024.28
2018-10-09T01:16:31.173Z,1024.28
2018-10-09T01:17:58.464Z,1024.31
2018-10-09T01:19:25.652Z,1024.33
2018-10-09T01:20:53.024Z,1024.35
2018-10-09T01:22:19.990Z,1024.35
2018-10-09T01:23:47.069Z,1024.33
2018-10-09T01:25:15.139Z,1024.32
2018-10-09T01:26:41.568Z,1024.29
2018-10-09T01:28:08.947Z,1024.29
2018-10-09T01:29:36.333Z,1024.29
2018-10-09T01:31:03.742Z,1024.31
2018-10-09T01:32:30.971Z,1024.32
2018-10-09T01:33:57.780Z,1024.33
2018-10-09T01:35:24.896Z,1024.35
2018-10-09T01:36:52.126Z,1024.36
2018-10-09T01:38:19.407Z,1024.32
2018-10-09T01:39:46.780Z,1024.29
2018-10-09T01:41:14.064Z,1024.28
2018-10-09T01:42:41.498Z,1024.24
2018-10-09T01:44:08.609Z,1024.22
2018-10-09T01:45:35.536Z,1024.24
2018-10-09T01:47:02.592Z,1024.28
2018-10-09T01:48:30.046Z,1024.30
2018-10-09T01:49:57.270Z,1024.32
2018-10-09T01:51:24.477Z,1024.34
2018-10-09T01:52:51.828Z,1024.35
2018-10-09T01:54:19.040Z,1024.36
2018-10-09T01:55:46.261Z,1024.34
2018-10-09T01:57:13.566Z,1024.32
2018-10-09T01:58:40.714Z,1024.29
2018-10-09T02:00:08.165Z,1024.26
2018-10-09T02:01:35.439Z,1024.26
2018-10-09T02:03:02.781Z,1024.27
2018-10-09T02:21:37.420Z,1024.23
2018-10-09T02:23:04.095Z,1024.20
2018-10-09T02:24:31.421Z,1024.22
2018-10-09T02:25:58.566Z,1024.23
2018-10-09T02:27:25.472Z,1024.23
2018-10-09T02:28:52.705Z,1024.16
2018-10-09T02:30:20.031Z,1024.14
2018-10-09T02:31:47.426Z,1024.14
2018-10-09T02:33:14.812Z,1024.13
2018-10-09T02:38:59.504Z,1024.08
2018-10-09T02:40:23.780Z,1024.06
2018-10-09T02:41:51.209Z,1024.06
2018-10-09T02:43:18.395Z,1024.08
2018-10-09T02:44:45.805Z,1024.08
2018-10-09T02:46:13.121Z,1024.06
2018-10-09T02:47:40.336Z,1024.03
2018-10-09T03:08:50.169Z,1024.15
2018-10-09T03:10:16.705Z,1024.14
2018-10-09T03:11:43.953Z,1024.11
2018-10-09T03:13:11.273Z,1024.10
2018-10-09T03:14:38.636Z,1024.09
2018-10-09T03:16:06.026Z,1024.08
2018-10-09T03:17:33.312Z,1023.99
2018-10-09T03:19:00.697Z,1023.95
2018-10-09T03:20:28.084Z,1023.91
2018-10-09T03:21:55.324Z,1023.91
2018-10-09T03:23:22.619Z,1023.90
2018-10-09T03:24:50.048Z,1023.92
2018-10-09T03:26:17.285Z,1023.93
2018-10-09T03:27:44.660Z,1023.93
2018-10-09T03:29:11.967Z,1023.91
2018-10-09T03:30:39.157Z,1023.94
2018-10-09T04:00:03.229Z,1023.84
2018-10-09T04:01:29.760Z,1023.85
2018-10-09T04:02:57.084Z,1023.83
2018-10-09T04:04:24.333Z,1023.84
2018-10-09T04:05:51.491Z,1023.85
2018-10-09T04:07:18.796Z,1023.83
2018-10-09T04:08:46.077Z,1023.85
2018-10-09T04:10:13.480Z,1023.89
2018-10-09T04:11:40.832Z,1023.96
2018-10-09T04:13:08.176Z,1024.02
2018-10-09T04:14:35.608Z,1024.07
2018-10-09T04:16:02.916Z,1024.08
2018-10-09T04:17:30.233Z,1024.03
2018-10-09T04:18:57.563Z,1023.97
2018-10-09T04:20:24.759Z,1023.92
2018-10-09T04:54:20.173Z,1024.02
2018-10-09T04:55:46.813Z,1024.03
2018-10-09T04:57:14.208Z,1024.06
2018-10-09T04:58:41.223Z,1024.11
2018-10-09T05:00:08.457Z,1024.13
2018-10-09T05:01:35.740Z,1024.15
2018-10-09T05:03:22.528Z,1024.13
2018-10-09T05:30:59.515Z,1024.18
2018-10-09T05:32:26.179Z,1024.20
2018-10-09T05:33:53.252Z,1024.19
2018-10-09T05:35:20.538Z,1024.18
2018-10-09T05:36:47.871Z,1024.15
2018-10-09T05:56:11.090Z,1024.14
2018-10-09T05:57:37.607Z,1024.15
2018-10-09T05:59:04.905Z,1024.16
2018-10-09T06:00:32.086Z,1024.17
2018-10-09T06:01:59.452Z,1024.16
2018-10-09T06:03:26.571Z,1024.15
2018-10-09T06:04:53.895Z,1024.13
2018-10-09T06:19:06.982Z,1024.01
2018-10-09T06:20:33.387Z,1024.03
2018-10-09T06:22:00.797Z,1024.06
2018-10-09T06:23:28.046Z,1024.07
2018-10-09T06:24:55.543Z,1024.11
2018-10-09T06:26:22.900Z,1024.12
2018-10-09T06:27:50.247Z,1024.13
2018-10-09T06:29:17.515Z,1024.15
2018-10-09T06:30:44.794Z,1024.12
2018-10-09T06:32:12.186Z,1024.09
2018-10-09T06:34:28.027Z,1024.09
2018-10-09T06:42:32.418Z,1024.20
2018-10-09T06:43:59.001Z,1024.19
2018-10-09T06:45:26.233Z,1024.22
2018-10-09T06:46:53.206Z,1024.24
2018-10-09T06:48:20.513Z,1024.26
2018-10-09T06:49:47.876Z,1024.28
2018-10-09T06:51:15.040Z,1024.30
2018-10-09T06:52:42.281Z,1024.29
2018-10-09T06:54:09.755Z,1024.31
2018-10-09T06:55:36.829Z,1024.31
2018-10-09T06:57:03.994Z,1024.28
2018-10-09T06:58:31.276Z,1024.31
2018-10-09T06:59:58.698Z,1024.33
2018-10-09T07:01:25.860Z,1024.39
2018-10-09T07:02:53.285Z,1024.41
2018-10-09T07:12:44.641Z,1024.52
2018-10-09T07:14:11.203Z,1024.55
2018-10-09T07:15:38.394Z,1024.55
2018-10-09T07:17:05.775Z,1024.57
2018-10-09T07:18:33.220Z,1024.54
2018-10-09T07:20:00.527Z,1024.51
2018-10-09T07:21:27.747Z,1024.48
2018-10-09T07:22:55.229Z,1024.50
2018-10-09T07:24:22.602Z,1024.50
2018-10-09T07:25:49.885Z,1024.49
2018-10-09T07:27:17.323Z,1024.51
2018-10-09T07:28:44.468Z,1024.51
2018-10-09T07:30:11.702Z,1024.53
2018-10-09T07:31:38.998Z,1024.57
2018-10-09T07:33:06.427Z,1024.59
2018-10-09T07:34:33.833Z,1024.66
2018-10-09T07:36:30.290Z,1024.70
2018-10-09T07:37:57.163Z,1024.73
2018-10-09T07:40:32.292Z,1024.75
2018-10-09T07:41:58.996Z,1024.79
2018-10-09T07:43:26.216Z,1024.80
2018-10-09T07:44:53.511Z,1024.81
2018-10-09T07:46:20.741Z,1024.81
2018-10-09T07:47:48.021Z,1024.85
2018-10-09T07:49:15.596Z,1024.87
2018-10-09T07:50:42.949Z,1024.85
2018-10-09T07:52:10.355Z,1024.84
2018-10-09T07:53:37.548Z,1024.85
2018-10-09T07:55:05.114Z,1024.88
2018-10-09T07:56:32.351Z,1024.91
2018-10-09T07:57:59.518Z,1024.94
2018-10-09T07:59:26.900Z,1024.92
2018-10-09T08:00:54.461Z,1024.93
2018-10-09T08:02:21.557Z,1024.95
2018-10-09T08:03:49.123Z,1024.95
2018-10-09T08:05:16.433Z,1024.99
2018-10-09T08:06:43.850Z,1024.98
2018-10-09T08:08:11.360Z,1024.95
2018-10-09T08:09:38.702Z,1024.95
2018-10-09T08:11:06.146Z,1024.95
2018-10-09T08:12:33.217Z,1024.99
2018-10-09T08:14:00.737Z,1025.02
2018-10-09T08:15:27.990Z,1025.00
2018-10-09T08:16:55.443Z,1024.97
2018-10-09T08:18:22.816Z,1024.99
2018-10-09T08:19:50.250Z,1025.07
2018-10-09T08:21:17.811Z,1025.11
2018-10-09T08:22:45.201Z,1025.13
2018-10-09T08:24:12.490Z,1025.12
2018-10-09T08:25:39.613Z,1025.10
2018-10-09T08:27:07.035Z,1025.08
2018-10-09T08:28:34.432Z,1025.06
2018-10-09T08:30:01.885Z,1025.10
2018-10-09T08:31:29.093Z,1025.11
2018-10-09T08:32:56.564Z,1025.15
2018-10-09T08:34:23.905Z,1025.15
2018-10-09T08:35:51.233Z,1025.18
2018-10-09T08:37:18.690Z,1025.21
2018-10-09T08:38:49.001Z,1025.24
2018-10-09T08:40:13.414Z,1025.19
2018-10-09T08:41:40.722Z,1025.11
2018-10-09T08:43:07.985Z,1025.10
2018-10-09T08:44:35.425Z,1025.03
2018-10-09T08:46:02.764Z,1025.01
2018-10-09T08:47:30.068Z,1024.98
2018-10-09T08:48:57.650Z,1024.97
2018-10-09T08:50:25.083Z,1024.92
2018-10-09T08:51:52.219Z,1024.92
2018-10-09T08:53:19.602Z,1024.94
2018-10-09T08:54:46.906Z,1024.96
2018-10-09T08:56:14.391Z,1024.96
2018-10-09T08:57:41.691Z,1024.99
2018-10-09T08:59:09.094Z,1025.04
2018-10-09T09:00:36.380Z,1025.09
2018-10-09T09:02:03.661Z,1025.10
2018-10-09T09:03:31.079Z,1025.09
2018-10-09T09:04:58.406Z,1025.09
2018-10-09T09:06:25.786Z,1025.10
2018-10-09T09:07:53.106Z,1025.11
2018-10-09T09:09:20.479Z,1025.11
2018-10-09T09:10:47.692Z,1025.11
2018-10-09T09:12:15.035Z,1025.12
2018-10-09T09:13:42.404Z,1025.11
2018-10-09T09:15:09.726Z,1025.09
2018-10-09T09:16:37.211Z,1025.04
2018-10-09T09:18:04.726Z,1025.07
2018-10-09T09:19:32.257Z,1025.09
2018-10-09T09:20:59.523Z,1025.12
2018-10-09T09:22:26.956Z,1025.10
2018-10-09T09:23:54.242Z,1025.06
2018-10-09T09:25:21.486Z,1025.00
2018-10-09T09:26:48.984Z,1025.00
2018-10-09T09:28:16.463Z,1025.05
2018-10-09T09:29:43.875Z,1025.09
2018-10-09T09:31:11.175Z,1025.07
2018-10-09T09:32:38.590Z,1025.04
2018-10-09T09:34:06.162Z,1025.01
2018-10-09T09:35:33.567Z,1024.91
2018-10-09T09:37:00.843Z,1024.89
2018-10-09T09:38:28.273Z,1024.88
2018-10-09T09:39:55.619Z,1024.91
2018-10-09T09:41:23.105Z,1024.90
2018-10-09T09:42:50.794Z,1024.88
2018-10-09T09:44:18.110Z,1024.86
2018-10-09T09:45:45.458Z,1024.87
2018-10-09T09:47:12.932Z,1024.87
2018-10-09T09:48:40.377Z,1024.91
2018-10-09T09:50:07.816Z,1024.92
2018-10-09T09:51:35.245Z,1024.91
2018-10-09T09:53:02.666Z,1024.85
2018-10-09T09:54:30.053Z,1024.87
2018-10-09T09:55:57.646Z,1024.90
2018-10-09T09:57:24.903Z,1024.87
2018-10-09T09:58:52.568Z,1024.87
2018-10-09T10:00:20.028Z,1024.93
2018-10-09T10:01:47.518Z,1024.94
2018-10-09T10:03:14.753Z,1024.94
2018-10-09T10:04:42.149Z,1024.91
2018-10-09T10:06:09.563Z,1024.89
2018-10-09T10:07:36.993Z,1024.91
2018-10-09T10:09:04.243Z,1024.99
2018-10-09T10:10:31.697Z,1025.00
2018-10-09T10:11:59.184Z,1025.02
2018-10-09T10:13:26.639Z,1025.07
2018-10-09T10:14:53.968Z,1025.09
2018-10-09T10:16:21.479Z,1025.09
2018-10-09T10:17:48.916Z,1025.10
2018-10-09T10:19:16.115Z,1025.12
2018-10-09T10:20:43.644Z,1025.12
2018-10-09T10:22:11.126Z,1025.07
2018-10-09T10:23:38.560Z,1025.04
2018-10-09T10:25:06.148Z,1025.01
2018-10-09T10:26:33.706Z,1025.01
2018-10-09T10:28:01.220Z,1025.00
2018-10-09T10:29:28.598Z,1024.97
2018-10-09T10:30:56.087Z,1025.02
2018-10-09T10:32:23.400Z,1025.03
2018-10-09T10:33:50.920Z,1025.03
2018-10-09T10:35:18.126Z,1025.08
2018-10-09T10:36:45.582Z,1025.05
2018-10-09T10:38:13.092Z,1025.07
2018-10-09T10:39:40.428Z,1025.05
2018-10-09T10:41:07.934Z,1025.05
2018-10-09T10:42:35.399Z,1025.05
2018-10-09T10:44:03.005Z,1025.05
2018-10-09T10:45:30.052Z,1025.06
2018-10-09T10:46:57.472Z,1025.03
2018-10-09T10:48:24.853Z,1025.04
2018-10-09T10:49:52.174Z,1025.05
2018-10-09T10:51:19.529Z,1025.03
2018-10-09T10:52:46.943Z,1025.01
2018-10-09T10:54:14.183Z,1025.02
2018-10-09T10:55:41.475Z,1025.00
2018-10-09T10:57:13.046Z,1025.05
2018-10-09T10:58:36.288Z,1025.03
2018-10-09T11:00:03.766Z,1025.04
2018-10-09T11:01:31.309Z,1025.01
2018-10-09T11:02:58.630Z,1024.98
2018-10-09T11:04:26.208Z,1024.95
2018-10-09T11:05:53.517Z,1024.94
2018-10-09T11:07:20.755Z,1024.90
2018-10-09T11:08:48.206Z,1024.90
2018-10-09T11:10:15.613Z,1024.88
2018-10-09T11:11:43.321Z,1024.85
2018-10-09T11:13:10.688Z,1024.87
2018-10-09T11:14:38.344Z,1024.86
2018-10-09T11:16:05.601Z,1024.84
2018-10-09T11:17:33.235Z,1024.81
2018-10-09T11:19:00.633Z,1024.80
2018-10-09T11:20:28.149Z,1024.76
2018-10-09T11:21:55.564Z,1024.74
2018-10-09T11:23:23.059Z,1024.75
2018-10-09T11:24:50.431Z,1024.75
2018-10-09T11:26:17.925Z,1024.76
2018-10-09T11:27:45.365Z,1024.75
2018-10-09T11:29:12.920Z,1024.67
2018-10-09T11:30:40.186Z,1024.63
2018-10-09T11:32:07.618Z,1024.60
2018-10-09T11:33:35.162Z,1024.59
2018-10-09T11:35:02.786Z,1024.58
2018-10-09T11:36:29.911Z,1024.59
2018-10-09T11:37:57.460Z,1024.62
2018-10-09T11:39:24.737Z,1024.68
2018-10-09T11:40:52.178Z,1024.66
2018-10-09T11:42:19.718Z,1024.65
2018-10-09T11:43:47.267Z,1024.63
2018-10-09T11:45:14.717Z,1024.62
2018-10-09T11:46:42.094Z,1024.57
2018-10-09T11:48:09.641Z,1024.58
2018-10-09T11:49:37.106Z,1024.51
2018-10-09T11:51:04.379Z,1024.50
2018-10-09T11:52:31.838Z,1024.52
2018-10-09T11:53:59.365Z,1024.47
2018-10-09T11:55:26.509Z,1024.47
2018-10-09T11:56:53.988Z,1024.48
2018-10-09T11:58:21.571Z,1024.50
2018-10-09T11:59:49.066Z,1024.54
2018-10-09T12:01:16.592Z,1024.45
2018-10-09T12:02:44.194Z,1024.44
2018-10-09T12:04:11.629Z,1024.41
2018-10-09T12:05:39.301Z,1024.41
2018-10-09T12:07:06.667Z,1024.39
2018-10-09T12:08:34.215Z,1024.35
2018-10-09T12:10:01.758Z,1024.35
2018-10-09T12:11:29.329Z,1024.32
2018-10-09T12:12:56.740Z,1024.29
2018-10-09T12:14:24.197Z,1024.27
2018-10-09T12:15:51.758Z,1024.26
2018-10-09T12:17:19.154Z,1024.28
2018-10-09T12:18:46.687Z,1024.28
2018-10-09T12:20:14.221Z,1024.29
2018-10-09T12:21:41.393Z,1024.30
2018-10-09T12:23:08.979Z,1024.33
2018-10-09T12:24:36.441Z,1024.33
2018-10-09T12:26:03.801Z,1024.32
2018-10-09T12:27:31.197Z,1024.33
2018-10-09T12:28:58.544Z,1024.31
2018-10-09T12:30:26.162Z,1024.28
2018-10-09T12:31:53.404Z,1024.26
2018-10-09T12:33:20.911Z,1024.25
2018-10-09T12:34:48.574Z,1024.25
2018-10-09T12:36:15.890Z,1024.23
2018-10-09T12:37:43.459Z,1024.22
2018-10-09T12:39:11.053Z,1024.20
2018-10-09T12:40:38.376Z,1024.18
2018-10-09T12:42:05.709Z,1024.19
2018-10-09T12:43:33.307Z,1024.21
2018-10-09T12:45:00.592Z,1024.20
2018-10-09T12:46:28.177Z,1024.19
2018-10-09T12:47:55.555Z,1024.16
2018-10-09T12:49:22.934Z,1024.17
2018-10-09T12:50:50.472Z,1024.12
2018-10-09T12:52:18.110Z,1024.11
2018-10-09T12:53:45.610Z,1024.10
2018-10-09T12:55:13.261Z,1024.18
2018-10-09T12:56:40.715Z,1024.18
2018-10-09T12:58:08.370Z,1024.16
2018-10-09T12:59:35.617Z,1024.14
2018-10-09T13:01:03.172Z,1024.11
2018-10-09T13:02:30.636Z,1024.10
2018-10-09T13:03:58.036Z,1024.10
2018-10-09T13:05:25.511Z,1024.11
2018-10-09T13:06:53.177Z,1024.07
2018-10-09T13:08:20.828Z,1024.04
2018-10-09T13:09:48.328Z,1023.99
2018-10-09T13:11:15.690Z,1023.96
2018-10-09T13:12:43.242Z,1023.95
2018-10-09T13:14:10.786Z,1023.96
2018-10-09T13:15:38.402Z,1023.97
2018-10-09T13:17:05.760Z,1023.97
2018-10-09T13:18:33.378Z,1023.93
2018-10-09T13:20:00.722Z,1023.91
2018-10-09T13:21:28.628Z,1023.91
2018-10-09T13:22:55.918Z,1023.88
2018-10-09T13:24:23.419Z,1023.87
2018-10-09T13:25:50.790Z,1023.84
2018-10-09T13:27:18.186Z,1023.82
2018-10-09T13:28:45.618Z,1023.88
2018-10-09T13:30:13.218Z,1023.89
2018-10-09T13:31:40.725Z,1023.93
2018-10-09T13:33:08.384Z,1023.92
2018-10-09T13:34:35.886Z,1023.89
2018-10-09T13:36:03.522Z,1023.87
2018-10-09T13:37:30.830Z,1023.81
2018-10-09T13:38:58.445Z,1023.75
2018-10-09T13:40:25.899Z,1023.74
2018-10-09T13:41:53.337Z,1023.70
2018-10-09T13:43:20.706Z,1023.71
2018-10-09T13:44:48.230Z,1023.68
2018-10-09T13:46:15.595Z,1023.68
2018-10-09T13:47:46.279Z,1023.68
2018-10-09T13:49:10.725Z,1023.68
2018-10-09T13:50:38.260Z,1023.69
2018-10-09T13:52:05.847Z,1023.68
2018-10-09T13:53:33.398Z,1023.74
2018-10-09T13:55:00.866Z,1023.72
2018-10-09T13:56:28.251Z,1023.68
2018-10-09T13:57:55.929Z,1023.64
2018-10-09T13:59:23.255Z,1023.62
2018-10-09T14:00:50.805Z,1023.62
2018-10-09T14:02:18.246Z,1023.58
2018-10-09T14:03:45.816Z,1023.59
2018-10-09T14:05:13.444Z,1023.59
2018-10-09T14:06:40.945Z,1023.62
2018-10-09T14:08:08.547Z,1023.64
2018-10-09T14:09:36.170Z,1023.60
2018-10-09T14:11:03.685Z,1023.58
2018-10-09T14:12:31.195Z,1023.55
2018-10-09T14:13:58.675Z,1023.52
2018-10-09T14:15:26.287Z,1023.48
2018-10-09T14:16:53.868Z,1023.49
2018-10-09T14:18:21.315Z,1023.51
2018-10-09T14:19:48.837Z,1023.53
2018-10-09T14:21:16.177Z,1023.55
2018-10-09T14:22:43.700Z,1023.55
2018-10-09T14:24:11.279Z,1023.55
2018-10-09T14:25:38.923Z,1023.57
2018-10-09T14:27:06.416Z,1023.57
2018-10-09T14:28:33.893Z,1023.56
2018-10-09T14:30:01.380Z,1023.57
2018-10-09T14:31:28.883Z,1023.59
2018-10-09T14:32:56.427Z,1023.61
2018-10-09T14:34:23.725Z,1023.63
2018-10-09T14:35:51.196Z,1023.61
2018-10-09T14:37:18.694Z,1023.61
2018-10-09T14:38:46.185Z,1023.59
2018-10-09T14:40:13.744Z,1023.63
2018-10-09T14:41:41.318Z,1023.64
2018-10-09T14:43:08.672Z,1023.64
2018-10-09T14:44:36.278Z,1023.59
2018-10-09T14:46:03.819Z,1023.58
2018-10-09T14:47:31.382Z,1023.55
2018-10-09T14:48:58.826Z,1023.54
2018-10-09T14:50:26.386Z,1023.50
2018-10-09T14:51:53.869Z,1023.50
2018-10-09T14:53:21.323Z,1023.52
2018-10-09T14:54:49.020Z,1023.54
2018-10-09T14:56:16.586Z,1023.58
2018-10-09T14:57:44.060Z,1023.60
2018-10-09T14:59:11.390Z,1023.60
2018-10-09T15:00:38.871Z,1023.57
2018-10-09T15:02:06.541Z,1023.55
2018-10-09T15:03:33.981Z,1023.54
2018-10-09T15:06:29.219Z,1023.50
2018-10-09T15:07:56.584Z,1023.49
2018-10-09T15:09:24.039Z,1023.49
2018-10-09T15:10:51.549Z,1023.49
2018-10-09T15:12:19.195Z,1023.51
2018-10-09T15:13:46.638Z,1023.53
2018-10-09T15:15:14.157Z,1023.55
2018-10-09T15:16:41.740Z,1023.58
2018-10-09T15:18:09.119Z,1023.58
2018-10-09T15:19:36.624Z,1023.58
2018-10-09T15:21:04.225Z,1023.59
2018-10-09T15:22:31.705Z,1023.62
2018-10-09T15:23:59.140Z,1023.60
2018-10-09T15:25:26.688Z,1023.60
2018-10-09T15:26:54.190Z,1023.63
2018-10-09T15:28:21.695Z,1023.64
2018-10-09T15:29:49.182Z,1023.65
2018-10-09T15:31:16.777Z,1023.65
2018-10-09T15:32:44.180Z,1023.67
2018-10-09T15:34:11.717Z,1023.67
2018-10-09T15:35:39.126Z,1023.68
2018-10-09T15:37:06.664Z,1023.67
2018-10-09T15:38:34.348Z,1023.68
2018-10-09T15:40:01.613Z,1023.70
2018-10-09T15:41:29.207Z,1023.73
2018-10-09T15:42:56.654Z,1023.74
2018-10-09T15:44:24.067Z,1023.74
2018-10-09T15:45:51.556Z,1023.74
2018-10-09T15:47:19.263Z,1023.74
2018-10-09T15:48:46.764Z,1023.71
2018-10-09T15:50:13.964Z,1023.71
2018-10-09T15:51:41.541Z,1023.72
2018-10-09T15:53:09.095Z,1023.71
2018-10-09T15:54:36.509Z,1023.70
2018-10-09T15:56:04.097Z,1023.70
2018-10-09T15:57:31.546Z,1023.69
2018-10-09T15:58:59.075Z,1023.69
2018-10-09T16:00:26.698Z,1023.70
2018-10-09T16:01:54.238Z,1023.70
2018-10-09T16:03:21.782Z,1023.71
2018-10-09T16:04:49.229Z,1023.68
2018-10-09T16:06:16.782Z,1023.69
2018-10-09T16:07:44.367Z,1023.70
2018-10-09T16:09:11.743Z,1023.70
2018-10-09T16:10:39.349Z,1023.72
2018-10-09T16:12:06.864Z,1023.72
2018-10-09T16:13:34.418Z,1023.75
2018-10-09T16:15:02.019Z,1023.75
2018-10-09T16:16:29.452Z,1023.75
2018-10-09T16:17:57.238Z,1023.75
2018-10-09T16:19:25.025Z,1023.75
2018-10-09T16:20:52.599Z,1023.74
2018-10-09T16:22:20.197Z,1023.77
2018-10-09T16:23:47.631Z,1023.77
2018-10-09T16:25:15.186Z,1023.80
2018-10-09T16:26:42.476Z,1023.81
2018-10-09T16:28:13.081Z,1023.86
2018-10-09T16:29:37.509Z,1023.89
2018-10-09T16:31:04.955Z,1023.93
2018-10-09T16:32:32.640Z,1023.97
2018-10-09T16:33:59.993Z,1023.94
2018-10-09T16:35:27.373Z,1023.93
2018-10-09T16:36:54.868Z,1023.95
2018-10-09T16:38:22.363Z,1023.98
2018-10-09T16:39:49.939Z,1023.99
2018-10-09T16:41:17.609Z,1023.98
2018-10-09T16:42:44.846Z,1023.96
2018-10-09T16:44:12.330Z,1023.94
2018-10-09T16:45:39.900Z,1023.94
2018-10-09T16:47:07.348Z,1023.93
2018-10-09T16:48:34.926Z,1023.96
2018-10-09T16:50:02.455Z,1023.97
2018-10-09T16:51:30.020Z,1024.00
2018-10-09T16:52:57.466Z,1024.00
2018-10-09T16:54:25.050Z,1024.02
2018-10-09T16:55:52.605Z,1024.04
2018-10-09T16:57:19.808Z,1024.04
2018-10-09T16:58:47.176Z,1024.06
2018-10-09T17:00:14.722Z,1024.04
2018-10-09T17:01:42.201Z,1024.04
2018-10-09T17:03:09.496Z,1024.05
2018-10-09T17:04:36.795Z,1024.04
2018-10-09T17:06:04.321Z,1024.06
2018-10-09T17:07:31.718Z,1024.07
2018-10-09T17:08:59.088Z,1024.11
2018-10-09T17:10:26.613Z,1024.12
2018-10-09T17:11:53.940Z,1024.12
2018-10-09T17:13:21.488Z,1024.13
2018-10-09T17:14:48.809Z,1024.13
2018-10-09T17:16:16.395Z,1024.11
2018-10-09T17:17:43.938Z,1024.14
2018-10-09T17:19:11.243Z,1024.13
2018-10-09T17:20:38.822Z,1024.12
2018-10-09T17:22:06.084Z,1024.14
2018-10-09T17:23:33.501Z,1024.12
2018-10-09T17:25:00.903Z,1024.14
2018-10-09T17:26:31.140Z,1024.17
2018-10-09T17:27:55.633Z,1024.20
2018-10-09T17:29:23.200Z,1024.22
2018-10-09T17:30:50.628Z,1024.23
2018-10-09T17:32:17.983Z,1024.24
2018-10-09T17:33:45.403Z,1024.25
2018-10-09T17:35:12.713Z,1024.27
2018-10-09T17:36:40.175Z,1024.28
2018-10-09T17:38:07.655Z,1024.30
2018-10-09T17:39:35.009Z,1024.31
2018-10-09T17:41:02.186Z,1024.31
2018-10-09T17:42:29.529Z,1024.35
2018-10-09T17:43:56.955Z,1024.38
2018-10-09T17:45:24.301Z,1024.42
2018-10-09T17:46:51.644Z,1024.44
2018-10-09T17:48:19.117Z,1024.43
2018-10-09T17:49:46.353Z,1024.41
2018-10-09T17:51:13.737Z,1024.41
2018-10-09T17:52:41.159Z,1024.42
2018-10-09T17:54:08.621Z,1024.41
2018-10-09T17:55:36.076Z,1024.41
2018-10-09T17:57:03.413Z,1024.42
2018-10-09T17:58:31.064Z,1024.43
2018-10-09T17:59:58.390Z,1024.47
2018-10-09T18:01:25.683Z,1024.49
2018-10-09T18:02:53.177Z,1024.52
2018-10-09T18:04:20.626Z,1024.52
2018-10-09T18:05:48.002Z,1024.55
2018-10-09T18:07:15.296Z,1024.54
2018-10-09T18:08:43.005Z,1024.55
2018-10-09T18:10:10.256Z,1024.56
2018-10-09T18:11:37.778Z,1024.59
2018-10-09T18:13:05.078Z,1024.61
2018-10-09T18:14:32.549Z,1024.64
2018-10-09T18:15:59.969Z,1024.62
2018-10-09T18:17:27.443Z,1024.63
2018-10-09T18:18:54.824Z,1024.64
2018-10-09T18:20:22.496Z,1024.69
2018-10-09T18:21:49.791Z,1024.70
2018-10-09T18:23:17.226Z,1024.70
2018-10-09T18:24:44.839Z,1024.71
2018-10-09T18:26:12.039Z,1024.69
2018-10-09T18:27:39.543Z,1024.67
2018-10-09T18:29:06.913Z,1024.65
2018-10-09T18:30:34.520Z,1024.64
2018-10-09T18:32:02.002Z,1024.65
2018-10-09T18:33:29.531Z,1024.64
2018-10-09T18:34:56.889Z,1024.66
2018-10-09T18:36:24.202Z,1024.64
2018-10-09T18:37:51.673Z,1024.64
2018-10-09T18:39:19.255Z,1024.64
2018-10-09T18:40:46.925Z,1024.62
2018-10-09T18:42:14.164Z,1024.62
2018-10-09T18:43:41.578Z,1024.62
2018-10-09T18:45:08.909Z,1024.60
2018-10-09T18:46:36.340Z,1024.59
2018-10-09T18:48:06.828Z,1024.59
2018-10-09T18:49:31.189Z,1024.60
2018-10-09T18:50:58.632Z,1024.61
2018-10-09T18:52:26.109Z,1024.62
2018-10-09T18:53:53.529Z,1024.61
2018-10-09T18:55:20.907Z,1024.63
2018-10-09T18:56:48.412Z,1024.64
2018-10-09T18:58:15.604Z,1024.64
2018-10-09T18:59:43.156Z,1024.66
2018-10-09T19:01:10.544Z,1024.69
2018-10-09T19:02:38.096Z,1024.71
2018-10-09T19:04:05.411Z,1024.74
2018-10-09T19:05:32.782Z,1024.75
2018-10-09T19:07:00.048Z,1024.75
2018-10-09T19:08:27.581Z,1024.74
2018-10-09T19:09:54.909Z,1024.73
2018-10-09T19:11:22.333Z,1024.75
2018-10-09T19:12:49.834Z,1024.72
2018-10-09T19:14:17.185Z,1024.71
2018-10-09T19:15:44.693Z,1024.68
2018-10-09T19:17:12.182Z,1024.69
2018-10-09T19:18:39.611Z,1024.69
2018-10-09T19:20:06.761Z,1024.70
2018-10-09T19:21:34.129Z,1024.70
2018-10-09T19:23:01.395Z,1024.68
2018-10-09T19:24:28.821Z,1024.65
2018-10-09T19:25:56.309Z,1024.65
2018-10-09T19:27:23.653Z,1024.64
2018-10-09T19:28:51.078Z,1024.66
2018-10-09T19:30:18.378Z,1024.66
2018-10-09T19:31:45.736Z,1024.68
2018-10-09T19:33:13.011Z,1024.67
2018-10-09T19:34:40.347Z,1024.69
2018-10-09T19:36:07.700Z,1024.70
2018-10-09T19:37:34.994Z,1024.71
2018-10-09T19:39:02.397Z,1024.73
2018-10-09T19:40:29.650Z,1024.75
2018-10-09T19:41:57.046Z,1024.78
2018-10-09T19:43:24.619Z,1024.79
2018-10-09T19:44:52.338Z,1024.82
2018-10-09T19:46:19.485Z,1024.84
2018-10-09T19:47:47.031Z,1024.84
2018-10-09T19:49:14.380Z,1024.84
2018-10-09T19:50:41.843Z,1024.81
2018-10-09T19:52:09.068Z,1024.82
2018-10-09T19:53:36.566Z,1024.83
2018-10-09T19:55:03.911Z,1024.83
2018-10-09T19:56:31.430Z,1024.84
2018-10-09T19:57:58.596Z,1024.85
2018-10-09T19:59:25.695Z,1024.89
2018-10-09T20:00:53.000Z,1024.89
2018-10-09T20:02:20.310Z,1024.91
2018-10-09T20:03:47.772Z,1024.92
2018-10-09T20:05:14.940Z,1024.94
2018-10-09T20:06:42.350Z,1024.94
2018-10-09T20:08:09.784Z,1024.95
2018-10-09T20:09:37.160Z,1024.94
2018-10-09T20:11:04.538Z,1024.98
2018-10-09T20:12:31.792Z,1025.00
2018-10-09T20:13:59.334Z,1024.99
2018-10-09T20:15:26.712Z,1025.02
2018-10-09T20:16:54.163Z,1025.04
2018-10-09T20:18:21.379Z,1025.04
2018-10-09T20:19:48.804Z,1025.04
2018-10-09T20:21:16.125Z,1025.04
2018-10-09T20:22:43.416Z,1025.04
2018-10-09T20:24:10.850Z,1025.06
2018-10-09T20:25:38.170Z,1025.10
2018-10-09T20:27:05.644Z,1025.11
2018-10-09T20:28:33.050Z,1025.08
2018-10-09T20:30:00.523Z,1025.09
2018-10-09T20:31:27.616Z,1025.11
2018-10-09T20:32:55.087Z,1025.13
2018-10-09T20:34:22.494Z,1025.14